sensor_id;sensor_type;location;lat;lon;timestamp;P1;durP1;ratioP1;P2;durP2;ratioP2
69588;SDS011;56792;50.644;17.984;2024-02-23T00:00:40;8.70;;;7.10;;
69588;SDS011;56792;50.644;17.984;2024-02-23T00:03:11;8.00;;;6.70;;
69588;SDS011;56792;50.644;17.984;2024-02-23T00:05:43;9.50;;;6.40;;
69588;SDS011;56792;50.644;17.984;2024-02-23T00:08:14;7.90;;;6.40;;
69588;SDS011;56792;50.644;17.984;2024-02-23T00:10:47;8.00;;;6.30;;
69588;SDS011;56792;50.644;17.984;2024-02-23T00:13:18;7.90;;;6.10;;
69588;SDS011;56792;50.644;17.984;2024-02-23T00:15:50;8.90;;;6.50;;
69588;SDS011;56792;50.644;17.984;2024-02-23T00:18:21;10.20;;;7.00;;
69588;SDS011;56792;50.644;17.984;2024-02-23T00:20:53;9.50;;;6.00;;
69588;SDS011;56792;50.644;17.984;2024-02-23T00:23:24;8.10;;;6.30;;
69588;SDS011;56792;50.644;17.984;2024-02-23T00:25:57;8.20;;;5.70;;
69588;SDS011;56792;50.644;17.984;2024-02-23T00:28:28;8.90;;;5.70;;
69588;SDS011;56792;50.644;17.984;2024-02-23T00:30:59;9.40;;;6.60;;
69588;SDS011;56792;50.644;17.984;2024-02-23T00:33:30;9.40;;;6.80;;
69588;SDS011;56792;50.644;17.984;2024-02-23T00:36:03;7.80;;;6.40;;
69588;SDS011;56792;50.644;17.984;2024-02-23T00:38:37;7.80;;;6.30;;
69588;SDS011;56792;50.644;17.984;2024-02-23T00:41:08;9.40;;;5.80;;
69588;SDS011;56792;50.644;17.984;2024-02-23T00:43:43;8.90;;;6.40;;
69588;SDS011;56792;50.644;17.984;2024-02-23T00:46:15;9.20;;;6.90;;
69588;SDS011;56792;50.644;17.984;2024-02-23T00:48:47;8.50;;;6.60;;
69588;SDS011;56792;50.644;17.984;2024-02-23T00:51:19;9.30;;;6.60;;
69588;SDS011;56792;50.644;17.984;2024-02-23T00:53:50;8.60;;;6.30;;
69588;SDS011;56792;50.644;17.984;2024-02-23T00:56:22;8.30;;;6.00;;
69588;SDS011;56792;50.644;17.984;2024-02-23T00:58:55;8.80;;;6.30;;
69588;SDS011;56792;50.644;17.984;2024-02-23T01:01:27;8.80;;;6.50;;
69588;SDS011;56792;50.644;17.984;2024-02-23T01:04:00;9.00;;;6.30;;
69588;SDS011;56792;50.644;17.984;2024-02-23T01:06:31;8.60;;;6.20;;
69588;SDS011;56792;50.644;17.984;2024-02-23T01:09:03;7.50;;;6.10;;
69588;SDS011;56792;50.644;17.984;2024-02-23T01:11:34;7.50;;;5.90;;
69588;SDS011;56792;50.644;17.984;2024-02-23T01:14:05;9.70;;;6.60;;
69588;SDS011;56792;50.644;17.984;2024-02-23T01:16:37;9.90;;;6.30;;
69588;SDS011;56792;50.644;17.984;2024-02-23T01:19:08;8.80;;;6.20;;
69588;SDS011;56792;50.644;17.984;2024-02-23T01:21:40;7.50;;;5.80;;
69588;SDS011;56792;50.644;17.984;2024-02-23T01:24:11;9.80;;;6.90;;
69588;SDS011;56792;50.644;17.984;2024-02-23T01:26:42;10.20;;;6.50;;
69588;SDS011;56792;50.644;17.984;2024-02-23T01:29:14;9.30;;;6.30;;
69588;SDS011;56792;50.644;17.984;2024-02-23T01:31:45;9.10;;;6.00;;
69588;SDS011;56792;50.644;17.984;2024-02-23T01:34:17;8.40;;;6.00;;
69588;SDS011;56792;50.644;17.984;2024-02-23T01:36:48;7.60;;;6.30;;
69588;SDS011;56792;50.644;17.984;2024-02-23T01:39:19;8.50;;;6.50;;
69588;SDS011;56792;50.644;17.984;2024-02-23T01:41:51;9.50;;;6.10;;
69588;SDS011;56792;50.644;17.984;2024-02-23T01:44:23;8.60;;;6.70;;
69588;SDS011;56792;50.644;17.984;2024-02-23T01:46:54;9.40;;;6.40;;
69588;SDS011;56792;50.644;17.984;2024-02-23T01:49:26;7.70;;;6.40;;
69588;SDS011;56792;50.644;17.984;2024-02-23T01:52:01;9.90;;;6.20;;
69588;SDS011;56792;50.644;17.984;2024-02-23T01:54:34;11.00;;;6.10;;
69588;SDS011;56792;50.644;17.984;2024-02-23T01:57:06;7.10;;;5.40;;
69588;SDS011;56792;50.644;17.984;2024-02-23T01:59:39;8.40;;;6.60;;
69588;SDS011;56792;50.644;17.984;2024-02-23T02:02:11;8.80;;;6.40;;
69588;SDS011;56792;50.644;17.984;2024-02-23T02:04:42;10.00;;;6.40;;
69588;SDS011;56792;50.644;17.984;2024-02-23T02:07:14;10.50;;;6.80;;
69588;SDS011;56792;50.644;17.984;2024-02-23T02:09:46;10.70;;;6.00;;
69588;SDS011;56792;50.644;17.984;2024-02-23T02:12:27;9.00;;;6.70;;
69588;SDS011;56792;50.644;17.984;2024-02-23T02:14:59;8.70;;;6.70;;
69588;SDS011;56792;50.644;17.984;2024-02-23T02:17:31;8.70;;;6.40;;
69588;SDS011;56792;50.644;17.984;2024-02-23T02:20:03;8.20;;;6.00;;
69588;SDS011;56792;50.644;17.984;2024-02-23T02:22:37;8.00;;;6.10;;
69588;SDS011;56792;50.644;17.984;2024-02-23T02:25:09;8.60;;;6.30;;
69588;SDS011;56792;50.644;17.984;2024-02-23T02:27:43;8.30;;;6.20;;
69588;SDS011;56792;50.644;17.984;2024-02-23T02:30:15;7.70;;;5.90;;
69588;SDS011;56792;50.644;17.984;2024-02-23T02:32:47;10.30;;;5.30;;
69588;SDS011;56792;50.644;17.984;2024-02-23T02:35:18;7.80;;;6.40;;
69588;SDS011;56792;50.644;17.984;2024-02-23T02:37:50;9.30;;;6.70;;
69588;SDS011;56792;50.644;17.984;2024-02-23T02:40:21;7.30;;;6.10;;
69588;SDS011;56792;50.644;17.984;2024-02-23T02:42:53;8.40;;;5.80;;
69588;SDS011;56792;50.644;17.984;2024-02-23T02:45:24;9.00;;;6.10;;
69588;SDS011;56792;50.644;17.984;2024-02-23T02:47:56;7.70;;;5.70;;
69588;SDS011;56792;50.644;17.984;2024-02-23T02:50:29;8.10;;;6.00;;
69588;SDS011;56792;50.644;17.984;2024-02-23T02:53:01;7.90;;;6.10;;
69588;SDS011;56792;50.644;17.984;2024-02-23T02:55:32;8.30;;;5.50;;
69588;SDS011;56792;50.644;17.984;2024-02-23T02:58:04;8.20;;;5.70;;
69588;SDS011;56792;50.644;17.984;2024-02-23T03:00:36;7.40;;;5.90;;
69588;SDS011;56792;50.644;17.984;2024-02-23T03:03:07;9.00;;;5.50;;
69588;SDS011;56792;50.644;17.984;2024-02-23T03:05:39;9.20;;;6.40;;
69588;SDS011;56792;50.644;17.984;2024-02-23T03:08:10;8.70;;;6.60;;
69588;SDS011;56792;50.644;17.984;2024-02-23T03:10:42;8.10;;;5.90;;
69588;SDS011;56792;50.644;17.984;2024-02-23T03:13:14;7.30;;;6.40;;
69588;SDS011;56792;50.644;17.984;2024-02-23T03:15:45;7.80;;;5.60;;
69588;SDS011;56792;50.644;17.984;2024-02-23T03:18:16;8.60;;;6.20;;
69588;SDS011;56792;50.644;17.984;2024-02-23T03:20:48;7.40;;;6.20;;
69588;SDS011;56792;50.644;17.984;2024-02-23T03:23:20;7.70;;;6.00;;
69588;SDS011;56792;50.644;17.984;2024-02-23T03:25:51;9.90;;;6.90;;
69588;SDS011;56792;50.644;17.984;2024-02-23T03:28:23;9.00;;;6.20;;
69588;SDS011;56792;50.644;17.984;2024-02-23T03:30:54;8.90;;;6.40;;
69588;SDS011;56792;50.644;17.984;2024-02-23T03:33:26;8.60;;;6.40;;
69588;SDS011;56792;50.644;17.984;2024-02-23T03:35:59;9.30;;;6.90;;
69588;SDS011;56792;50.644;17.984;2024-02-23T03:38:30;10.40;;;6.80;;
69588;SDS011;56792;50.644;17.984;2024-02-23T03:41:03;13.00;;;7.40;;
69588;SDS011;56792;50.644;17.984;2024-02-23T03:43:34;11.40;;;7.00;;
69588;SDS011;56792;50.644;17.984;2024-02-23T03:46:07;11.10;;;7.10;;
69588;SDS011;56792;50.644;17.984;2024-02-23T03:48:40;13.00;;;7.10;;
69588;SDS011;56792;50.644;17.984;2024-02-23T03:51:11;12.70;;;7.20;;
69588;SDS011;56792;50.644;17.984;2024-02-23T03:53:43;8.50;;;7.00;;
69588;SDS011;56792;50.644;17.984;2024-02-23T03:56:15;9.60;;;7.30;;
69588;SDS011;56792;50.644;17.984;2024-02-23T03:58:46;11.40;;;6.40;;
69588;SDS011;56792;50.644;17.984;2024-02-23T04:01:18;10.40;;;6.60;;
69588;SDS011;56792;50.644;17.984;2024-02-23T04:03:50;7.50;;;5.10;;
69588;SDS011;56792;50.644;17.984;2024-02-23T04:06:21;9.20;;;6.20;;
69588;SDS011;56792;50.644;17.984;2024-02-23T04:08:53;7.90;;;5.60;;
69588;SDS011;56792;50.644;17.984;2024-02-23T04:11:24;8.90;;;6.90;;
69588;SDS011;56792;50.644;17.984;2024-02-23T04:13:56;7.20;;;6.20;;
69588;SDS011;56792;50.644;17.984;2024-02-23T04:16:29;5.10;;;4.50;;
69588;SDS011;56792;50.644;17.984;2024-02-23T04:19:01;7.80;;;6.00;;
69588;SDS011;56792;50.644;17.984;2024-02-23T04:21:32;9.80;;;6.60;;
69588;SDS011;56792;50.644;17.984;2024-02-23T04:24:04;8.90;;;6.30;;
69588;SDS011;56792;50.644;17.984;2024-02-23T04:26:37;6.80;;;4.90;;
69588;SDS011;56792;50.644;17.984;2024-02-23T04:29:08;7.90;;;5.60;;
69588;SDS011;56792;50.644;17.984;2024-02-23T04:31:40;8.30;;;5.40;;
69588;SDS011;56792;50.644;17.984;2024-02-23T04:34:11;7.50;;;6.20;;
69588;SDS011;56792;50.644;17.984;2024-02-23T04:36:44;8.00;;;6.00;;
69588;SDS011;56792;50.644;17.984;2024-02-23T04:39:16;7.90;;;6.10;;
69588;SDS011;56792;50.644;17.984;2024-02-23T04:41:47;8.50;;;5.50;;
69588;SDS011;56792;50.644;17.984;2024-02-23T04:44:19;7.80;;;6.10;;
69588;SDS011;56792;50.644;17.984;2024-02-23T04:46:50;8.00;;;5.40;;
69588;SDS011;56792;50.644;17.984;2024-02-23T04:49:21;8.60;;;6.10;;
69588;SDS011;56792;50.644;17.984;2024-02-23T04:51:53;7.90;;;6.00;;
69588;SDS011;56792;50.644;17.984;2024-02-23T04:54:24;8.50;;;5.90;;
69588;SDS011;56792;50.644;17.984;2024-02-23T04:56:56;7.40;;;5.60;;
69588;SDS011;56792;50.644;17.984;2024-02-23T04:59:27;7.90;;;5.80;;
69588;SDS011;56792;50.644;17.984;2024-02-23T05:02:00;7.60;;;5.20;;
69588;SDS011;56792;50.644;17.984;2024-02-23T05:04:32;7.60;;;5.70;;
69588;SDS011;56792;50.644;17.984;2024-02-23T05:07:04;8.60;;;5.70;;
69588;SDS011;56792;50.644;17.984;2024-02-23T05:09:35;6.60;;;5.70;;
69588;SDS011;56792;50.644;17.984;2024-02-23T05:12:10;10.50;;;6.00;;
69588;SDS011;56792;50.644;17.984;2024-02-23T05:14:41;8.20;;;5.70;;
69588;SDS011;56792;50.644;17.984;2024-02-23T05:17:13;7.70;;;5.70;;
69588;SDS011;56792;50.644;17.984;2024-02-23T05:19:44;9.20;;;5.40;;
69588;SDS011;56792;50.644;17.984;2024-02-23T05:22:16;7.30;;;5.40;;
69588;SDS011;56792;50.644;17.984;2024-02-23T05:24:48;8.00;;;5.60;;
69588;SDS011;56792;50.644;17.984;2024-02-23T05:27:20;8.10;;;5.70;;
69588;SDS011;56792;50.644;17.984;2024-02-23T05:29:51;8.10;;;5.70;;
69588;SDS011;56792;50.644;17.984;2024-02-23T05:32:23;9.40;;;6.10;;
69588;SDS011;56792;50.644;17.984;2024-02-23T05:34:54;9.60;;;6.10;;
69588;SDS011;56792;50.644;17.984;2024-02-23T05:37:26;7.40;;;5.90;;
69588;SDS011;56792;50.644;17.984;2024-02-23T05:39:57;8.40;;;5.70;;
69588;SDS011;56792;50.644;17.984;2024-02-23T05:42:32;7.90;;;6.40;;
69588;SDS011;56792;50.644;17.984;2024-02-23T05:45:04;10.90;;;6.30;;
69588;SDS011;56792;50.644;17.984;2024-02-23T05:47:37;8.60;;;6.20;;
69588;SDS011;56792;50.644;17.984;2024-02-23T05:50:09;8.50;;;6.30;;
69588;SDS011;56792;50.644;17.984;2024-02-23T05:52:41;10.00;;;6.40;;
69588;SDS011;56792;50.644;17.984;2024-02-23T05:55:13;9.10;;;6.10;;
69588;SDS011;56792;50.644;17.984;2024-02-23T05:57:44;9.10;;;6.00;;
69588;SDS011;56792;50.644;17.984;2024-02-23T06:00:17;9.30;;;6.30;;
69588;SDS011;56792;50.644;17.984;2024-02-23T06:02:49;7.80;;;5.90;;
69588;SDS011;56792;50.644;17.984;2024-02-23T06:05:21;8.50;;;6.00;;
69588;SDS011;56792;50.644;17.984;2024-02-23T06:07:52;8.70;;;6.00;;
69588;SDS011;56792;50.644;17.984;2024-02-23T06:10:24;8.80;;;6.20;;
69588;SDS011;56792;50.644;17.984;2024-02-23T06:12:55;7.50;;;5.80;;
69588;SDS011;56792;50.644;17.984;2024-02-23T06:15:27;9.30;;;6.60;;
69588;SDS011;56792;50.644;17.984;2024-02-23T06:17:58;7.40;;;5.90;;
69588;SDS011;56792;50.644;17.984;2024-02-23T06:20:30;8.70;;;6.70;;
69588;SDS011;56792;50.644;17.984;2024-02-23T06:23:01;6.20;;;5.30;;
69588;SDS011;56792;50.644;17.984;2024-02-23T06:25:33;8.10;;;6.20;;
69588;SDS011;56792;50.644;17.984;2024-02-23T06:28:05;8.80;;;7.00;;
69588;SDS011;56792;50.644;17.984;2024-02-23T06:30:37;9.50;;;6.90;;
69588;SDS011;56792;50.644;17.984;2024-02-23T06:33:08;10.90;;;6.60;;
69588;SDS011;56792;50.644;17.984;2024-02-23T06:35:40;7.50;;;5.30;;
69588;SDS011;56792;50.644;17.984;2024-02-23T06:38:11;10.30;;;6.10;;
69588;SDS011;56792;50.644;17.984;2024-02-23T06:40:43;8.40;;;6.30;;
69588;SDS011;56792;50.644;17.984;2024-02-23T06:43:15;8.30;;;5.80;;
69588;SDS011;56792;50.644;17.984;2024-02-23T06:45:47;8.30;;;6.50;;
69588;SDS011;56792;50.644;17.984;2024-02-23T06:48:18;8.20;;;6.60;;
69588;SDS011;56792;50.644;17.984;2024-02-23T06:50:50;11.00;;;7.10;;
69588;SDS011;56792;50.644;17.984;2024-02-23T06:53:21;12.90;;;7.60;;
69588;SDS011;56792;50.644;17.984;2024-02-23T06:55:53;8.10;;;7.20;;
69588;SDS011;56792;50.644;17.984;2024-02-23T06:58:24;8.80;;;6.10;;
69588;SDS011;56792;50.644;17.984;2024-02-23T07:00:56;9.30;;;6.30;;
69588;SDS011;56792;50.644;17.984;2024-02-23T07:03:28;7.60;;;6.00;;
69588;SDS011;56792;50.644;17.984;2024-02-23T07:06:00;8.50;;;7.00;;
69588;SDS011;56792;50.644;17.984;2024-02-23T07:08:32;10.40;;;7.40;;
69588;SDS011;56792;50.644;17.984;2024-02-23T07:11:03;9.10;;;6.90;;
69588;SDS011;56792;50.644;17.984;2024-02-23T07:13:35;9.90;;;7.20;;
69588;SDS011;56792;50.644;17.984;2024-02-23T07:16:07;12.30;;;8.30;;
69588;SDS011;56792;50.644;17.984;2024-02-23T07:18:39;13.00;;;7.70;;
69588;SDS011;56792;50.644;17.984;2024-02-23T07:21:11;9.40;;;6.50;;
69588;SDS011;56792;50.644;17.984;2024-02-23T07:23:43;10.40;;;6.60;;
69588;SDS011;56792;50.644;17.984;2024-02-23T07:26:14;8.10;;;6.50;;
69588;SDS011;56792;50.644;17.984;2024-02-23T07:28:48;8.40;;;6.70;;
69588;SDS011;56792;50.644;17.984;2024-02-23T07:31:19;8.10;;;6.00;;
69588;SDS011;56792;50.644;17.984;2024-02-23T07:33:51;9.50;;;6.30;;
69588;SDS011;56792;50.644;17.984;2024-02-23T07:36:22;7.90;;;6.30;;
69588;SDS011;56792;50.644;17.984;2024-02-23T07:38:54;7.20;;;6.40;;
69588;SDS011;56792;50.644;17.984;2024-02-23T07:41:26;7.70;;;6.40;;
69588;SDS011;56792;50.644;17.984;2024-02-23T07:43:57;8.70;;;6.50;;
69588;SDS011;56792;50.644;17.984;2024-02-23T07:46:29;8.50;;;6.50;;
69588;SDS011;56792;50.644;17.984;2024-02-23T07:49:00;7.90;;;6.60;;
69588;SDS011;56792;50.644;17.984;2024-02-23T07:51:32;8.00;;;5.60;;
69588;SDS011;56792;50.644;17.984;2024-02-23T07:54:03;7.00;;;5.70;;
69588;SDS011;56792;50.644;17.984;2024-02-23T07:56:35;5.90;;;5.30;;
69588;SDS011;56792;50.644;17.984;2024-02-23T07:59:06;6.40;;;5.50;;
69588;SDS011;56792;50.644;17.984;2024-02-23T08:01:38;7.20;;;5.40;;
69588;SDS011;56792;50.644;17.984;2024-02-23T08:04:10;6.80;;;5.40;;
69588;SDS011;56792;50.644;17.984;2024-02-23T08:06:41;6.90;;;6.20;;
69588;SDS011;56792;50.644;17.984;2024-02-23T08:09:13;7.10;;;5.50;;
69588;SDS011;56792;50.644;17.984;2024-02-23T08:11:45;6.40;;;5.10;;
69588;SDS011;56792;50.644;17.984;2024-02-23T08:14:17;6.80;;;6.00;;
69588;SDS011;56792;50.644;17.984;2024-02-23T08:16:49;8.30;;;5.50;;
69588;SDS011;56792;50.644;17.984;2024-02-23T08:19:20;9.10;;;6.10;;
69588;SDS011;56792;50.644;17.984;2024-02-23T08:21:52;6.40;;;5.50;;
69588;SDS011;56792;50.644;17.984;2024-02-23T08:24:23;7.00;;;5.60;;
69588;SDS011;56792;50.644;17.984;2024-02-23T08:26:55;6.60;;;5.80;;
69588;SDS011;56792;50.644;17.984;2024-02-23T08:29:27;6.40;;;5.80;;
69588;SDS011;56792;50.644;17.984;2024-02-23T08:31:58;7.30;;;6.10;;
69588;SDS011;56792;50.644;17.984;2024-02-23T08:34:29;7.30;;;6.10;;
69588;SDS011;56792;50.644;17.984;2024-02-23T08:37:02;8.30;;;5.90;;
69588;SDS011;56792;50.644;17.984;2024-02-23T08:39:34;7.90;;;5.30;;
69588;SDS011;56792;50.644;17.984;2024-02-23T08:42:06;7.20;;;6.20;;
69588;SDS011;56792;50.644;17.984;2024-02-23T08:44:37;8.00;;;6.60;;
69588;SDS011;56792;50.644;17.984;2024-02-23T08:47:09;8.60;;;6.40;;
69588;SDS011;56792;50.644;17.984;2024-02-23T08:49:41;7.70;;;6.10;;
69588;SDS011;56792;50.644;17.984;2024-02-23T08:52:12;8.30;;;6.50;;
69588;SDS011;56792;50.644;17.984;2024-02-23T08:54:44;14.80;;;8.20;;
69588;SDS011;56792;50.644;17.984;2024-02-23T08:57:15;7.70;;;6.50;;
69588;SDS011;56792;50.644;17.984;2024-02-23T08:59:48;8.90;;;6.60;;
69588;SDS011;56792;50.644;17.984;2024-02-23T09:02:19;8.00;;;6.40;;
69588;SDS011;56792;50.644;17.984;2024-02-23T09:04:51;9.30;;;6.80;;
69588;SDS011;56792;50.644;17.984;2024-02-23T09:07:23;12.70;;;7.30;;
69588;SDS011;56792;50.644;17.984;2024-02-23T09:09:54;9.90;;;6.90;;
69588;SDS011;56792;50.644;17.984;2024-02-23T09:12:26;8.20;;;6.20;;
69588;SDS011;56792;50.644;17.984;2024-02-23T09:14:57;7.20;;;5.80;;
69588;SDS011;56792;50.644;17.984;2024-02-23T09:17:29;9.50;;;6.70;;
69588;SDS011;56792;50.644;17.984;2024-02-23T09:20:00;9.30;;;6.30;;
69588;SDS011;56792;50.644;17.984;2024-02-23T09:22:32;8.70;;;5.60;;
69588;SDS011;56792;50.644;17.984;2024-02-23T09:25:07;6.60;;;5.90;;
69588;SDS011;56792;50.644;17.984;2024-02-23T09:27:39;7.30;;;5.50;;
69588;SDS011;56792;50.644;17.984;2024-02-23T09:30:14;6.50;;;5.60;;
69588;SDS011;56792;50.644;17.984;2024-02-23T09:32:45;6.80;;;5.50;;
69588;SDS011;56792;50.644;17.984;2024-02-23T09:35:17;7.60;;;5.90;;
69588;SDS011;56792;50.644;17.984;2024-02-23T09:37:49;6.70;;;5.80;;
69588;SDS011;56792;50.644;17.984;2024-02-23T09:40:20;7.90;;;5.30;;
69588;SDS011;56792;50.644;17.984;2024-02-23T09:42:57;8.60;;;5.90;;
69588;SDS011;56792;50.644;17.984;2024-02-23T09:45:29;8.10;;;5.80;;
69588;SDS011;56792;50.644;17.984;2024-02-23T09:48:02;8.50;;;7.40;;
69588;SDS011;56792;50.644;17.984;2024-02-23T09:50:37;8.80;;;5.80;;
69588;SDS011;56792;50.644;17.984;2024-02-23T09:53:12;7.90;;;5.50;;
69588;SDS011;56792;50.644;17.984;2024-02-23T09:55:45;8.00;;;6.20;;
69588;SDS011;56792;50.644;17.984;2024-02-23T09:58:17;9.20;;;6.10;;
69588;SDS011;56792;50.644;17.984;2024-02-23T10:00:49;9.50;;;7.10;;
69588;SDS011;56792;50.644;17.984;2024-02-23T10:03:22;8.70;;;6.20;;
69588;SDS011;56792;50.644;17.984;2024-02-23T10:05:55;6.70;;;5.00;;
69588;SDS011;56792;50.644;17.984;2024-02-23T10:08:29;7.10;;;5.30;;
69588;SDS011;56792;50.644;17.984;2024-02-23T10:11:02;6.20;;;4.00;;
69588;SDS011;56792;50.644;17.984;2024-02-23T10:13:33;6.90;;;5.90;;
69588;SDS011;56792;50.644;17.984;2024-02-23T10:16:06;7.20;;;6.00;;
69588;SDS011;56792;50.644;17.984;2024-02-23T10:18:40;9.30;;;8.40;;
69588;SDS011;56792;50.644;17.984;2024-02-23T10:21:12;40.30;;;24.60;;
69588;SDS011;56792;50.644;17.984;2024-02-23T10:23:43;74.40;;;38.10;;
69588;SDS011;56792;50.644;17.984;2024-02-23T10:26:18;43.20;;;27.70;;
69588;SDS011;56792;50.644;17.984;2024-02-23T10:28:51;13.90;;;10.70;;
69588;SDS011;56792;50.644;17.984;2024-02-23T10:31:25;8.70;;;7.80;;
69588;SDS011;56792;50.644;17.984;2024-02-23T10:33:58;8.20;;;7.20;;
69588;SDS011;56792;50.644;17.984;2024-02-23T10:36:38;8.20;;;7.30;;
69588;SDS011;56792;50.644;17.984;2024-02-23T10:39:17;6.60;;;5.60;;
69588;SDS011;56792;50.644;17.984;2024-02-23T10:41:56;6.70;;;5.80;;
69588;SDS011;56792;50.644;17.984;2024-02-23T10:44:29;7.60;;;6.60;;
69588;SDS011;56792;50.644;17.984;2024-02-23T10:47:01;6.30;;;5.30;;
69588;SDS011;56792;50.644;17.984;2024-02-23T10:49:34;7.40;;;5.80;;
69588;SDS011;56792;50.644;17.984;2024-02-23T10:52:10;5.40;;;4.70;;
69588;SDS011;56792;50.644;17.984;2024-02-23T10:54:46;5.20;;;4.30;;
69588;SDS011;56792;50.644;17.984;2024-02-23T10:57:19;4.70;;;4.00;;
69588;SDS011;56792;50.644;17.984;2024-02-23T10:59:51;4.90;;;3.90;;
69588;SDS011;56792;50.644;17.984;2024-02-23T11:02:24;8.40;;;4.10;;
69588;SDS011;56792;50.644;17.984;2024-02-23T11:04:59;5.80;;;5.30;;
69588;SDS011;56792;50.644;17.984;2024-02-23T11:07:32;6.30;;;5.50;;
69588;SDS011;56792;50.644;17.984;2024-02-23T11:10:08;6.70;;;6.00;;
69588;SDS011;56792;50.644;17.984;2024-02-23T11:12:42;6.40;;;5.70;;
69588;SDS011;56792;50.644;17.984;2024-02-23T11:15:28;9.40;;;7.00;;
69588;SDS011;56792;50.644;17.984;2024-02-23T11:18:02;9.60;;;6.70;;
69588;SDS011;56792;50.644;17.984;2024-02-23T11:20:38;9.60;;;6.80;;
69588;SDS011;56792;50.644;17.984;2024-02-23T11:23:17;7.20;;;4.80;;
69588;SDS011;56792;50.644;17.984;2024-02-23T11:26:06;6.00;;;4.10;;
69588;SDS011;56792;50.644;17.984;2024-02-23T11:28:47;4.90;;;3.90;;
69588;SDS011;56792;50.644;17.984;2024-02-23T11:31:23;6.50;;;4.70;;
69588;SDS011;56792;50.644;17.984;2024-02-23T11:33:59;6.40;;;5.80;;
69588;SDS011;56792;50.644;17.984;2024-02-23T11:36:32;5.80;;;5.30;;
69588;SDS011;56792;50.644;17.984;2024-02-23T11:39:04;5.60;;;4.90;;
69588;SDS011;56792;50.644;17.984;2024-02-23T11:41:37;5.40;;;4.40;;
69588;SDS011;56792;50.644;17.984;2024-02-23T11:44:09;5.90;;;4.00;;
69588;SDS011;56792;50.644;17.984;2024-02-23T11:46:42;4.50;;;4.10;;
69588;SDS011;56792;50.644;17.984;2024-02-23T11:49:15;5.70;;;3.90;;
69588;SDS011;56792;50.644;17.984;2024-02-23T11:51:47;4.80;;;4.10;;
69588;SDS011;56792;50.644;17.984;2024-02-23T11:54:19;5.90;;;5.20;;
69588;SDS011;56792;50.644;17.984;2024-02-23T11:56:50;5.20;;;4.70;;
69588;SDS011;56792;50.644;17.984;2024-02-23T11:59:22;4.30;;;3.90;;
69588;SDS011;56792;50.644;17.984;2024-02-23T12:01:55;3.90;;;3.50;;
69588;SDS011;56792;50.644;17.984;2024-02-23T12:04:28;4.40;;;4.00;;
69588;SDS011;56792;50.644;17.984;2024-02-23T12:06:59;4.10;;;3.50;;
69588;SDS011;56792;50.644;17.984;2024-02-23T12:09:32;4.40;;;3.30;;
69588;SDS011;56792;50.644;17.984;2024-02-23T12:12:04;3.80;;;3.00;;
69588;SDS011;56792;50.644;17.984;2024-02-23T12:14:38;4.20;;;3.20;;
69588;SDS011;56792;50.644;17.984;2024-02-23T12:17:10;3.70;;;2.90;;
69588;SDS011;56792;50.644;17.984;2024-02-23T12:19:43;3.30;;;3.00;;
69588;SDS011;56792;50.644;17.984;2024-02-23T12:22:14;3.40;;;2.70;;
69588;SDS011;56792;50.644;17.984;2024-02-23T12:24:46;3.90;;;3.10;;
69588;SDS011;56792;50.644;17.984;2024-02-23T12:27:19;3.70;;;2.60;;
69588;SDS011;56792;50.644;17.984;2024-02-23T12:29:54;3.60;;;2.90;;
69588;SDS011;56792;50.644;17.984;2024-02-23T12:32:26;3.90;;;2.40;;
69588;SDS011;56792;50.644;17.984;2024-02-23T12:34:58;3.50;;;3.10;;
69588;SDS011;56792;50.644;17.984;2024-02-23T12:37:29;3.80;;;3.20;;
69588;SDS011;56792;50.644;17.984;2024-02-23T12:40:07;3.00;;;2.70;;
69588;SDS011;56792;50.644;17.984;2024-02-23T12:42:40;4.20;;;2.50;;
69588;SDS011;56792;50.644;17.984;2024-02-23T12:45:12;3.80;;;3.10;;
69588;SDS011;56792;50.644;17.984;2024-02-23T12:47:44;3.40;;;3.10;;
69588;SDS011;56792;50.644;17.984;2024-02-23T12:50:17;5.70;;;3.50;;
69588;SDS011;56792;50.644;17.984;2024-02-23T12:52:48;4.00;;;3.20;;
69588;SDS011;56792;50.644;17.984;2024-02-23T12:55:20;3.90;;;2.90;;
69588;SDS011;56792;50.644;17.984;2024-02-23T12:57:52;3.50;;;2.60;;
69588;SDS011;56792;50.644;17.984;2024-02-23T13:00:24;3.60;;;2.90;;
69588;SDS011;56792;50.644;17.984;2024-02-23T13:02:55;4.00;;;3.20;;
69588;SDS011;56792;50.644;17.984;2024-02-23T13:05:27;3.60;;;3.30;;
69588;SDS011;56792;50.644;17.984;2024-02-23T13:07:58;4.20;;;3.10;;
69588;SDS011;56792;50.644;17.984;2024-02-23T13:10:30;3.50;;;2.50;;
69588;SDS011;56792;50.644;17.984;2024-02-23T13:13:03;4.00;;;3.30;;
69588;SDS011;56792;50.644;17.984;2024-02-23T13:15:35;6.40;;;4.10;;
69588;SDS011;56792;50.644;17.984;2024-02-23T13:18:07;4.20;;;3.40;;
69588;SDS011;56792;50.644;17.984;2024-02-23T13:20:39;4.60;;;3.40;;
69588;SDS011;56792;50.644;17.984;2024-02-23T13:23:11;4.20;;;3.70;;
69588;SDS011;56792;50.644;17.984;2024-02-23T13:25:44;4.60;;;3.00;;
69588;SDS011;56792;50.644;17.984;2024-02-23T13:28:15;3.80;;;2.90;;
69588;SDS011;56792;50.644;17.984;2024-02-23T13:30:47;3.70;;;2.70;;
69588;SDS011;56792;50.644;17.984;2024-02-23T13:33:19;4.00;;;3.00;;
69588;SDS011;56792;50.644;17.984;2024-02-23T13:35:52;4.10;;;3.30;;
69588;SDS011;56792;50.644;17.984;2024-02-23T13:38:24;6.30;;;3.90;;
69588;SDS011;56792;50.644;17.984;2024-02-23T13:40:55;5.00;;;3.60;;
69588;SDS011;56792;50.644;17.984;2024-02-23T13:43:27;5.50;;;3.90;;
69588;SDS011;56792;50.644;17.984;2024-02-23T13:45:59;6.30;;;4.80;;
69588;SDS011;56792;50.644;17.984;2024-02-23T13:48:32;5.40;;;3.80;;
69588;SDS011;56792;50.644;17.984;2024-02-23T13:51:04;5.10;;;3.70;;
69588;SDS011;56792;50.644;17.984;2024-02-23T13:53:35;4.10;;;3.20;;
69588;SDS011;56792;50.644;17.984;2024-02-23T13:56:08;4.10;;;3.70;;
69588;SDS011;56792;50.644;17.984;2024-02-23T13:58:39;4.60;;;3.60;;
69588;SDS011;56792;50.644;17.984;2024-02-23T14:01:11;4.70;;;3.40;;
69588;SDS011;56792;50.644;17.984;2024-02-23T14:03:43;4.80;;;3.90;;
69588;SDS011;56792;50.644;17.984;2024-02-23T14:06:15;5.30;;;4.70;;
69588;SDS011;56792;50.644;17.984;2024-02-23T14:08:46;5.00;;;4.50;;
69588;SDS011;56792;50.644;17.984;2024-02-23T14:11:18;6.80;;;5.40;;
69588;SDS011;56792;50.644;17.984;2024-02-23T14:13:50;4.90;;;4.50;;
69588;SDS011;56792;50.644;17.984;2024-02-23T14:16:22;4.60;;;4.10;;
69588;SDS011;56792;50.644;17.984;2024-02-23T14:18:53;5.30;;;4.80;;
69588;SDS011;56792;50.644;17.984;2024-02-23T14:21:25;7.20;;;5.40;;
69588;SDS011;56792;50.644;17.984;2024-02-23T14:23:56;7.20;;;4.40;;
69588;SDS011;56792;50.644;17.984;2024-02-23T14:26:28;8.20;;;5.10;;
69588;SDS011;56792;50.644;17.984;2024-02-23T14:28:59;9.20;;;6.20;;
69588;SDS011;56792;50.644;17.984;2024-02-23T14:31:31;6.50;;;4.70;;
69588;SDS011;56792;50.644;17.984;2024-02-23T14:34:03;6.40;;;4.60;;
69588;SDS011;56792;50.644;17.984;2024-02-23T14:36:34;7.50;;;5.40;;
69588;SDS011;56792;50.644;17.984;2024-02-23T14:39:06;8.10;;;5.60;;
69588;SDS011;56792;50.644;17.984;2024-02-23T14:41:38;11.00;;;5.90;;
69588;SDS011;56792;50.644;17.984;2024-02-23T14:44:10;12.10;;;8.60;;
69588;SDS011;56792;50.644;17.984;2024-02-23T14:46:42;27.30;;;17.70;;
69588;SDS011;56792;50.644;17.984;2024-02-23T14:49:13;29.10;;;20.60;;
69588;SDS011;56792;50.644;17.984;2024-02-23T14:51:45;18.20;;;13.90;;
69588;SDS011;56792;50.644;17.984;2024-02-23T14:54:17;16.80;;;13.70;;
69588;SDS011;56792;50.644;17.984;2024-02-23T14:56:48;21.10;;;17.70;;
69588;SDS011;56792;50.644;17.984;2024-02-23T14:59:20;32.00;;;24.70;;
69588;SDS011;56792;50.644;17.984;2024-02-23T15:01:51;26.00;;;23.20;;